Time;durP1;ratioP1;P1;durP2;ratioP2;P2;SDS_P1;SDS_P2;PMS_P1;PMS_P2;Temp;Humidity;BMP_temperature;BMP_pressure;BME280_temperature;BME280_humidity;BME280_pressure;Samples;Min_cycle;Max_cycle;Signal;HPM_P1;HPM_P2
2023/02/02 00:00:56;;;;;;;14.00;2.40;;;4.80;99.90;;;;;;4736546;30;20249;-84
2023/02/02 00:03:21;;;;;;;14.17;2.87;;;4.80;99.90;;;;;;4745695;30;20220;-86
2023/02/02 00:05:49;;;;;;;13.70;2.97;;;4.80;99.90;;;;;;4755367;30;20193;-87
2023/02/02 00:08:16;;;;;;;12.33;2.57;;;4.90;99.90;;;;;;4753887;30;20193;-83
2023/02/02 00:10:43;;;;;;;6.97;1.70;;;4.90;99.90;;;;;;4754240;30;20195;-83
2023/02/02 00:13:08;;;;;;;15.83;2.90;;;4.80;99.90;;;;;;4755103;30;20189;-85
2023/02/02 00:15:34;;;;;;;12.33;2.40;;;4.70;99.90;;;;;;4755315;30;20200;-86
2023/02/02 00:18:00;;;;;;;26.00;3.17;;;4.70;99.90;;;;;;4755144;30;20193;-87
2023/02/02 00:20:26;;;;;;;19.17;2.93;;;4.70;99.90;;;;;;4753977;30;20212;-83
2023/02/02 00:22:51;;;;;;;16.87;2.80;;;4.70;99.90;;;;;;4754838;30;20220;-82
2023/02/02 00:25:19;;;;;;;11.77;2.03;;;4.70;99.90;;;;;;4754910;30;20254;-84
2023/02/02 00:27:45;;;;;;;13.30;2.60;;;4.80;99.90;;;;;;4753927;30;20195;-83
2023/02/02 00:30:11;;;;;;;15.17;2.57;;;4.80;99.90;;;;;;4754976;30;20267;-81
2023/02/02 00:32:37;;;;;;;17.20;2.60;;;4.80;99.90;;;;;;4754676;30;20192;-87
2023/02/02 00:35:03;;;;;;;12.80;1.90;;;4.90;99.90;;;;;;4753496;30;20275;-84
2023/02/02 00:37:28;;;;;;;16.13;2.80;;;4.90;99.90;;;;;;4753655;30;20177;-85
2023/02/02 00:39:54;;;;;;;12.50;2.00;;;4.80;99.90;;;;;;4753466;30;20231;-86
2023/02/02 00:42:20;;;;;;;11.03;2.40;;;4.70;99.90;;;;;;4754638;30;20212;-86
2023/02/02 00:47:30;;;;;;;16.70;2.27;;;4.80;99.90;;;;;;4754726;30;20188;-83
2023/02/02 00:49:55;;;;;;;18.40;2.57;;;4.90;99.90;;;;;;4754194;30;20193;-83
2023/02/02 00:52:21;;;;;;;18.97;3.37;;;4.90;99.90;;;;;;4752812;30;20195;-85
2023/02/02 00:54:47;;;;;;;17.10;3.07;;;4.90;99.90;;;;;;4753909;30;20526;-86
2023/02/02 00:57:13;;;;;;;14.23;2.37;;;4.90;99.90;;;;;;4753471;30;20189;-83
2023/02/02 00:59:40;;;;;;;19.03;3.00;;;5.00;99.90;;;;;;4753025;30;20196;-82
2023/02/02 01:02:05;;;;;;;12.37;2.57;;;5.00;99.90;;;;;;4754030;30;20196;-84
2023/02/02 01:04:31;;;;;;;12.00;2.33;;;4.90;99.90;;;;;;4752921;30;20208;-82
2023/02/02 01:06:57;;;;;;;11.90;2.23;;;5.00;99.90;;;;;;4754310;30;20208;-82
2023/02/02 01:09:23;;;;;;;20.73;2.93;;;5.00;99.90;;;;;;4754219;30;20183;-83
2023/02/02 01:11:51;;;;;;;16.87;2.77;;;5.10;99.90;;;;;;4752809;30;20525;-80
2023/02/02 01:14:17;;;;;;;16.27;2.77;;;5.10;99.90;;;;;;4753837;30;20177;-82
2023/02/02 01:16:43;;;;;;;12.03;2.53;;;5.10;99.90;;;;;;4753762;30;20621;-82
2023/02/02 01:19:11;;;;;;;18.63;2.33;;;5.00;99.90;;;;;;4754030;30;20188;-83
2023/02/02 01:21:37;;;;;;;12.97;2.43;;;5.00;99.90;;;;;;4753868;30;20203;-83
2023/02/02 01:24:02;;;;;;;15.70;2.30;;;5.00;99.90;;;;;;4752201;30;20228;-82
2023/02/02 01:26:30;;;;;;;14.03;2.27;;;4.90;99.90;;;;;;4752907;30;20203;-84
2023/02/02 01:28:59;;;;;;;16.73;3.00;;;4.90;99.90;;;;;;4753709;30;20185;-80
2023/02/02 01:31:24;;;;;;;13.33;2.20;;;5.00;99.90;;;;;;4753816;30;20183;-82
2023/02/02 01:33:51;;;;;;;19.17;3.33;;;5.00;99.90;;;;;;4753603;30;20267;-83
2023/02/02 01:36:22;;;;;;;15.40;2.27;;;5.00;99.90;;;;;;4753578;30;20180;-83
2023/02/02 01:38:48;;;;;;;16.20;2.20;;;5.10;99.90;;;;;;4752223;30;20189;-82
2023/02/02 01:41:21;;;;;;;20.17;2.33;;;5.00;99.90;;;;;;4752507;30;20614;-83
2023/02/02 01:43:51;;;;;;;13.20;2.50;;;5.10;99.90;;;;;;4751972;30;20228;-81
2023/02/02 01:46:20;;;;;;;15.23;2.80;;;5.00;99.90;;;;;;4751950;30;20598;-81
2023/02/02 01:48:57;;;;;;;17.27;2.23;;;5.00;99.90;;;;;;4753378;30;20187;-83
2023/02/02 01:51:48;;;;;;;14.23;2.83;;;5.00;99.90;;;;;;4752345;30;20180;-83
2023/02/02 01:54:45;;;;;;;12.87;2.23;;;5.00;99.90;;;;;;4751816;30;20180;-82
2023/02/02 01:57:18;;;;;;;14.10;2.90;;;4.90;99.90;;;;;;4749113;30;20196;-83
2023/02/02 01:59:46;;;;;;;13.43;2.30;;;4.90;99.90;;;;;;4753277;30;20177;-83
2023/02/02 02:02:13;;;;;;;20.13;2.87;;;4.90;99.90;;;;;;4751655;30;20193;-83
2023/02/02 02:04:39;;;;;;;17.27;2.37;;;4.90;99.90;;;;;;4751685;30;20192;-83
2023/02/02 02:07:05;;;;;;;12.03;2.30;;;4.90;99.90;;;;;;4752164;30;20195;-83
2023/02/02 02:09:33;;;;;;;13.17;2.10;;;4.90;99.90;;;;;;4753056;30;20181;-83
2023/02/02 02:11:59;;;;;;;8.17;2.20;;;4.80;99.90;;;;;;4751942;30;20613;-84
2023/02/02 02:17:30;;;;;;;15.07;2.57;;;4.80;99.90;;;;;;4753496;30;20188;-82
2023/02/02 02:27:13;;;;;;;11.07;2.67;;;4.90;99.90;;;;;;4753296;30;20254;-83
2023/02/02 02:30:23;;;;;;;16.90;2.90;;;4.90;99.90;;;;;;4753119;30;20234;-82
2023/02/02 02:33:10;;;;;;;13.07;1.97;;;4.70;99.90;;;;;;4752910;30;20252;-81
2023/02/02 02:35:55;;;;;;;13.73;2.30;;;4.80;99.90;;;;;;4752962;30;20248;-82
2023/02/02 02:38:36;;;;;;;14.07;2.33;;;4.70;99.90;;;;;;4751887;30;20193;-84
2023/02/02 02:41:18;;;;;;;12.80;2.40;;;4.60;99.90;;;;;;4753003;30;20218;-82
2023/02/02 02:43:49;;;;;;;11.23;2.43;;;4.60;99.90;;;;;;4752595;30;20314;-83
2023/02/02 02:46:15;;;;;;;21.83;2.87;;;4.60;99.90;;;;;;4751513;30;20528;-83
2023/02/02 02:48:44;;;;;;;12.10;1.97;;;4.70;99.90;;;;;;4751750;30;20568;-83
2023/02/02 02:51:40;;;;;;;12.80;2.50;;;4.70;99.90;;;;;;4751761;30;20629;-84
2023/02/02 02:54:06;;;;;;;19.27;2.10;;;4.60;99.90;;;;;;4752529;30;20189;-81
2023/02/02 02:57:07;;;;;;;18.43;2.80;;;4.70;99.90;;;;;;4752849;30;20185;-81
2023/02/02 03:00:03;;;;;;;17.87;2.50;;;4.60;99.90;;;;;;4742801;30;20204;-82
2023/02/02 03:02:56;;;;;;;18.53;2.50;;;4.70;99.90;;;;;;4751171;30;20230;-81
2023/02/02 03:05:50;;;;;;;13.33;2.23;;;4.70;99.90;;;;;;4752858;30;20230;-82
2023/02/02 03:08:38;;;;;;;13.63;2.17;;;4.70;99.90;;;;;;4752855;30;20319;-83
2023/02/02 03:11:06;;;;;;;24.87;2.67;;;4.60;99.90;;;;;;4752763;30;20172;-83
2023/02/02 03:13:32;;;;;;;20.30;2.37;;;4.50;99.90;;;;;;4751244;30;20195;-82
2023/02/02 03:15:57;;;;;;;14.17;2.97;;;4.50;99.90;;;;;;4751981;30;20188;-84
2023/02/02 03:18:27;;;;;;;14.23;2.53;;;4.50;99.90;;;;;;4754984;30;20184;-83
2023/02/02 03:20:53;;;;;;;10.90;2.00;;;4.50;99.90;;;;;;4756157;30;20173;-80
2023/02/02 03:23:19;;;;;;;22.80;2.90;;;4.60;99.90;;;;;;4755524;30;20217;-81
2023/02/02 03:25:45;;;;;;;14.57;3.10;;;4.60;99.90;;;;;;4754308;30;20196;-84
2023/02/02 03:28:11;;;;;;;17.20;2.90;;;4.50;99.90;;;;;;4755644;30;20193;-82
2023/02/02 03:30:40;;;;;;;14.70;2.90;;;4.50;99.90;;;;;;4754799;30;20640;-82
2023/02/02 03:33:06;;;;;;;21.13;2.60;;;4.50;99.90;;;;;;4754314;30;20544;-82
2023/02/02 03:38:12;;;;;;;14.30;2.33;;;4.40;99.90;;;;;;5087080;24;20566;-81
2023/02/02 03:40:38;;;;;;;14.07;2.57;;;4.50;99.90;;;;;;4755629;30;20193;-83
2023/02/02 03:43:04;;;;;;;14.50;2.50;;;4.50;99.90;;;;;;4754465;30;20220;-83
2023/02/02 03:45:34;;;;;;;17.03;2.93;;;4.40;99.90;;;;;;4755337;30;20219;-81
2023/02/02 03:48:00;;;;;;;15.43;2.57;;;4.40;99.90;;;;;;4755799;30;20185;-81
2023/02/02 03:50:26;;;;;;;15.40;2.23;;;4.30;99.90;;;;;;4754460;30;20189;-82
2023/02/02 03:52:53;;;;;;;22.70;3.30;;;4.20;99.90;;;;;;4754141;30;20192;-83
2023/02/02 03:55:18;;;;;;;12.00;2.50;;;4.30;99.90;;;;;;4755497;30;20191;-81
2023/02/02 03:57:44;;;;;;;13.03;2.30;;;4.40;99.90;;;;;;4755697;30;20267;-83
2023/02/02 04:00:10;;;;;;;16.73;2.93;;;4.30;99.90;;;;;;4754573;30;20253;-83
2023/02/02 04:02:36;;;;;;;16.57;2.40;;;4.30;99.90;;;;;;4758334;30;20227;-84
2023/02/02 04:05:01;;;;;;;17.40;2.03;;;4.30;99.90;;;;;;4771835;30;20188;-83
2023/02/02 04:07:27;;;;;;;14.40;2.50;;;4.20;99.90;;;;;;4772818;30;20216;-83
2023/02/02 04:09:53;;;;;;;22.40;2.50;;;4.20;99.90;;;;;;4771293;30;20216;-84
2023/02/02 04:12:18;;;;;;;12.27;2.20;;;4.20;99.90;;;;;;4773112;30;20255;-82
2023/02/02 04:14:44;;;;;;;16.80;3.73;;;4.30;99.90;;;;;;4772396;30;20188;-79
2023/02/02 04:17:10;;;;;;;16.20;2.63;;;4.40;99.90;;;;;;4771974;30;20256;-83
2023/02/02 04:19:36;;;;;;;20.43;2.83;;;4.30;99.90;;;;;;4773202;30;20188;-84
2023/02/02 04:22:01;;;;;;;18.67;3.00;;;4.30;99.90;;;;;;4772913;30;20184;-82
2023/02/02 04:24:27;;;;;;;19.27;2.73;;;4.30;99.90;;;;;;4772729;30;20184;-82
2023/02/02 04:26:53;;;;;;;17.40;2.90;;;4.40;99.90;;;;;;4773057;30;20248;-82
2023/02/02 04:29:18;;;;;;;17.60;2.00;;;4.30;99.90;;;;;;4772332;30;20180;-83
2023/02/02 04:31:44;;;;;;;12.30;2.43;;;4.30;99.90;;;;;;4771760;30;20527;-85
2023/02/02 04:34:10;;;;;;;17.20;2.57;;;4.30;99.90;;;;;;4771391;30;20272;-84
2023/02/02 04:36:36;;;;;;;18.40;3.17;;;4.30;99.90;;;;;;4772659;30;20249;-87
2023/02/02 04:39:03;;;;;;;13.07;2.20;;;4.40;99.90;;;;;;4772853;30;20196;-86
2023/02/02 04:41:28;;;;;;;22.80;3.33;;;4.40;99.90;;;;;;4771538;30;20204;-84
2023/02/02 04:43:54;;;;;;;12.13;2.70;;;4.40;99.90;;;;;;4772525;30;20660;-84
2023/02/02 04:46:20;;;;;;;17.30;2.60;;;4.30;99.90;;;;;;4771222;30;20540;-82
2023/02/02 04:48:49;;;;;;;23.73;2.97;;;4.30;99.90;;;;;;4772592;30;20184;-83
2023/02/02 04:51:17;;;;;;;10.37;3.00;;;4.30;99.90;;;;;;4771412;30;20180;-83
2023/02/02 04:53:44;;;;;;;16.07;2.40;;;4.30;99.90;;;;;;4772338;30;20177;-83
2023/02/02 04:56:18;;;;;;;18.73;2.50;;;4.30;99.90;;;;;;4771154;30;20278;-82
2023/02/02 04:58:44;;;;;;;12.20;2.30;;;4.40;99.90;;;;;;4771392;30;20192;-82
2023/02/02 05:01:18;;;;;;;18.80;2.93;;;4.30;99.90;;;;;;4772541;30;20198;-84
2023/02/02 05:03:44;;;;;;;7.93;2.27;;;4.40;99.90;;;;;;4772002;30;20303;-83
2023/02/02 05:06:10;;;;;;;17.23;2.80;;;4.40;99.90;;;;;;4772424;30;20564;-83
2023/02/02 05:08:36;;;;;;;13.13;2.23;;;4.40;99.90;;;;;;4770782;30;20188;-86
2023/02/02 05:11:06;;;;;;;18.17;2.97;;;4.40;99.90;;;;;;4770937;30;20188;-84
2023/02/02 05:13:32;;;;;;;14.20;2.23;;;4.40;99.90;;;;;;4772130;30;20188;-81
2023/02/02 05:15:58;;;;;;;9.47;2.20;;;4.50;99.90;;;;;;4771008;30;20192;-81
2023/02/02 05:18:24;;;;;;;15.37;2.37;;;4.50;99.90;;;;;;4772268;30;20612;-81
2023/02/02 05:20:51;;;;;;;15.70;2.50;;;4.60;99.90;;;;;;4772095;30;20240;-83
2023/02/02 05:23:18;;;;;;;24.20;3.20;;;4.50;99.90;;;;;;4771198;30;20228;-84
2023/02/02 05:25:43;;;;;;;13.63;2.50;;;4.50;99.90;;;;;;4771080;30;20278;-83
2023/02/02 05:28:09;;;;;;;11.13;2.10;;;4.50;99.90;;;;;;4771845;30;20318;-84
2023/02/02 05:30:38;;;;;;;21.67;2.90;;;4.40;99.90;;;;;;4771946;30;20180;-83
2023/02/02 05:33:04;;;;;;;18.23;2.27;;;4.40;99.90;;;;;;4770452;30;20219;-83
2023/02/02 05:35:29;;;;;;;13.37;2.37;;;4.30;99.90;;;;;;4762984;30;20212;-82
2023/02/02 05:37:55;;;;;;;17.27;2.83;;;4.20;99.90;;;;;;4753850;30;20676;-83
2023/02/02 05:40:23;;;;;;;17.30;2.53;;;4.30;99.90;;;;;;4753488;30;20214;-83
2023/02/02 05:42:49;;;;;;;22.70;3.13;;;4.30;99.90;;;;;;4768851;30;20678;-83
2023/02/02 05:45:15;;;;;;;17.37;2.80;;;4.30;99.90;;;;;;4770357;30;20188;-82
2023/02/02 05:47:41;;;;;;;16.37;3.17;;;4.20;99.90;;;;;;4770407;30;20196;-83
2023/02/02 05:50:08;;;;;;;21.63;2.67;;;4.20;99.90;;;;;;4755505;30;20297;-85
2023/02/02 05:52:36;;;;;;;13.27;2.50;;;4.30;99.90;;;;;;4750988;30;20181;-82
2023/02/02 05:55:02;;;;;;;14.13;3.03;;;4.20;99.90;;;;;;4763644;30;20200;-84
2023/02/02 05:57:28;;;;;;;14.93;2.80;;;4.20;99.90;;;;;;4754056;30;20185;-80
2023/02/02 05:59:54;;;;;;;18.07;3.13;;;4.20;99.90;;;;;;4753432;30;20203;-80
2023/02/02 06:02:20;;;;;;;23.10;2.93;;;4.20;99.90;;;;;;4752022;30;20203;-82
2023/02/02 06:04:45;;;;;;;17.00;3.87;;;4.20;99.90;;;;;;4751631;30;20291;-82
2023/02/02 06:07:12;;;;;;;17.37;3.67;;;4.30;99.90;;;;;;4751678;30;20184;-84
2023/02/02 06:09:37;;;;;;;19.60;2.80;;;4.20;99.90;;;;;;4751484;30;20269;-82
2023/02/02 06:12:03;;;;;;;16.93;2.90;;;4.10;99.90;;;;;;4752725;30;20181;-81
2023/02/02 06:14:30;;;;;;;19.73;2.20;;;4.20;99.90;;;;;;4751355;30;20699;-81
2023/02/02 06:16:55;;;;;;;15.47;3.63;;;4.10;99.90;;;;;;4751562;30;20242;-82
2023/02/02 06:19:21;;;;;;;22.73;3.63;;;4.20;99.90;;;;;;4753584;30;20633;-84
2023/02/02 06:21:47;;;;;;;20.23;2.80;;;4.20;99.90;;;;;;4753524;30;20184;-83
2023/02/02 06:24:13;;;;;;;21.57;2.87;;;4.10;99.90;;;;;;4762222;30;20227;-82
2023/02/02 06:26:39;;;;;;;24.23;3.20;;;4.20;99.90;;;;;;4770061;30;20677;-81
2023/02/02 06:29:05;;;;;;;28.80;2.73;;;4.20;99.90;;;;;;4771184;30;20188;-82
2023/02/02 06:31:32;;;;;;;13.80;2.80;;;4.10;99.90;;;;;;4771123;30;20203;-85
2023/02/02 06:33:59;;;;;;;17.03;2.60;;;4.10;99.90;;;;;;4769858;30;20211;-81
2023/02/02 06:36:26;;;;;;;19.00;2.43;;;4.20;99.90;;;;;;4771295;30;20184;-83
2023/02/02 06:38:54;;;;;;;13.13;2.83;;;4.10;99.90;;;;;;4770820;30;20240;-82
2023/02/02 06:41:20;;;;;;;15.80;2.50;;;4.10;99.90;;;;;;4769869;30;20199;-82
2023/02/02 06:43:46;;;;;;;18.53;2.97;;;4.20;99.90;;;;;;4780829;30;20234;-81
2023/02/02 06:46:12;;;;;;;33.23;3.70;;;4.30;99.90;;;;;;4788981;29;20223;-83
2023/02/02 06:48:38;;;;;;;14.33;2.53;;;4.30;99.90;;;;;;4788967;29;20190;-81
2023/02/02 06:51:05;;;;;;;25.73;3.47;;;4.20;99.90;;;;;;4788329;29;20183;-82
2023/02/02 06:53:31;;;;;;;22.23;2.70;;;4.10;99.90;;;;;;4786837;29;20230;-81
2023/02/02 06:56:00;;;;;;;15.20;2.77;;;4.10;99.90;;;;;;4774355;30;20641;-83
2023/02/02 06:58:26;;;;;;;11.53;2.47;;;4.10;99.90;;;;;;4774433;30;20191;-83
2023/02/02 07:00:52;;;;;;;22.43;3.30;;;4.10;99.90;;;;;;4774399;30;20184;-82
2023/02/02 07:03:20;;;;;;;23.57;5.03;;;4.00;99.90;;;;;;4774328;30;20204;-83
2023/02/02 07:05:46;;;;;;;25.67;3.57;;;4.10;99.90;;;;;;4773117;30;20188;-81
2023/02/02 07:08:12;;;;;;;16.57;3.97;;;4.00;99.90;;;;;;4774194;30;20218;-81
2023/02/02 07:10:38;;;;;;;17.67;3.90;;;4.10;99.90;;;;;;4773916;30;20216;-82
2023/02/02 07:13:05;;;;;;;17.53;4.30;;;4.10;99.90;;;;;;4772845;30;20705;-86
2023/02/02 07:15:32;;;;;;;19.33;3.97;;;4.20;99.90;;;;;;4774242;30;20190;-83
2023/02/02 07:17:59;;;;;;;26.60;4.00;;;4.10;99.90;;;;;;4774368;30;20206;-82
2023/02/02 07:20:25;;;;;;;25.67;4.33;;;4.20;99.90;;;;;;4774419;30;20206;-81
2023/02/02 07:22:51;;;;;;;23.43;3.63;;;4.30;99.90;;;;;;4772904;30;20676;-82
2023/02/02 07:25:17;;;;;;;21.80;3.70;;;4.20;99.90;;;;;;4773948;30;20190;-86
2023/02/02 07:27:42;;;;;;;18.23;3.57;;;4.20;99.90;;;;;;4774166;30;20659;-86
2023/02/02 07:30:09;;;;;;;29.30;4.10;;;4.30;99.90;;;;;;4773145;30;20259;-88
2023/02/02 07:32:35;;;;;;;25.33;3.13;;;4.30;99.90;;;;;;4773062;30;20180;-86
2023/02/02 07:35:01;;;;;;;25.23;4.27;;;4.30;99.90;;;;;;4771914;30;20192;-88
2023/02/02 07:37:26;;;;;;;21.60;3.47;;;4.40;99.90;;;;;;4773916;30;20236;-88
2023/02/02 07:39:52;;;;;;;19.17;3.67;;;4.40;99.90;;;;;;4773524;30;20262;-84
2023/02/02 07:42:18;;;;;;;25.23;4.07;;;4.50;99.90;;;;;;4771922;30;20219;-83
2023/02/02 07:44:44;;;;;;;15.70;3.27;;;4.50;99.90;;;;;;4773513;30;20214;-85
2023/02/02 07:47:10;;;;;;;26.10;3.63;;;4.50;99.90;;;;;;4772513;30;20252;-86
2023/02/02 07:49:35;;;;;;;19.20;3.10;;;4.50;99.90;;;;;;4772429;30;20196;-87
2023/02/02 07:52:01;;;;;;;14.27;2.87;;;4.50;99.90;;;;;;4772304;30;20858;-85
2023/02/02 07:54:27;;;;;;;22.90;3.50;;;4.50;99.90;;;;;;4773175;30;20192;-85
2023/02/02 07:56:52;;;;;;;20.13;2.93;;;4.50;99.90;;;;;;4773706;30;20195;-86
2023/02/02 07:59:18;;;;;;;18.93;3.03;;;4.60;99.90;;;;;;4773555;30;20180;-85
2023/02/02 08:01:44;;;;;;;23.40;2.90;;;4.60;99.90;;;;;;4772122;30;20196;-84
2023/02/02 08:04:10;;;;;;;19.93;3.07;;;4.60;99.90;;;;;;4772270;30;20562;-85
2023/02/02 08:06:38;;;;;;;16.10;3.20;;;4.70;99.90;;;;;;4773431;30;20176;-85
2023/02/02 08:09:08;;;;;;;21.27;3.77;;;4.90;99.90;;;;;;4772620;30;20620;-83
2023/02/02 08:11:36;;;;;;;21.00;3.53;;;4.90;99.90;;;;;;4771942;30;20211;-83
2023/02/02 08:14:02;;;;;;;18.43;2.70;;;4.90;99.90;;;;;;4771853;30;20219;-85
2023/02/02 08:16:29;;;;;;;33.67;3.23;;;5.00;99.90;;;;;;4773410;30;20473;-85
2023/02/02 08:18:56;;;;;;;16.53;2.43;;;5.00;99.90;;;;;;4773212;30;20249;-83
2023/02/02 08:21:22;;;;;;;26.87;3.10;;;5.00;99.90;;;;;;4771784;30;20648;-82
2023/02/02 08:23:48;;;;;;;16.73;2.77;;;5.00;99.90;;;;;;4771469;30;20223;-84
2023/02/02 08:26:19;;;;;;;18.40;2.87;;;4.90;99.90;;;;;;4773006;30;20176;-84
2023/02/02 08:28:48;;;;;;;26.70;3.03;;;4.90;99.90;;;;;;4765405;30;20200;-84
2023/02/02 08:31:20;;;;;;;19.20;3.10;;;4.90;99.90;;;;;;4759157;30;20227;-83
2023/02/02 08:33:46;;;;;;;16.97;2.77;;;5.00;99.90;;;;;;4770757;30;20219;-83
2023/02/02 08:36:17;;;;;;;17.50;2.80;;;5.00;99.90;;;;;;4772612;30;20242;-84
2023/02/02 08:38:43;;;;;;;20.10;2.90;;;5.10;99.90;;;;;;4770784;30;20246;-84
2023/02/02 08:41:11;;;;;;;25.83;3.00;;;5.10;99.90;;;;;;4771725;30;20180;-84
2023/02/02 08:43:37;;;;;;;21.10;3.17;;;5.10;99.90;;;;;;4772547;30;20216;-84
2023/02/02 08:46:03;;;;;;;16.07;3.00;;;5.10;99.90;;;;;;4772711;30;20180;-84
2023/02/02 08:48:29;;;;;;;26.80;2.90;;;5.10;99.90;;;;;;4772566;30;20184;-84
2023/02/02 08:50:57;;;;;;;25.43;3.50;;;5.10;99.90;;;;;;4771127;30;20651;-83
2023/02/02 08:53:24;;;;;;;20.40;3.00;;;5.10;99.90;;;;;;4771198;30;20213;-83
2023/02/02 08:56:01;;;;;;;19.03;3.57;;;5.20;99.90;;;;;;4772352;30;20783;-83
2023/02/02 08:58:27;;;;;;;24.57;3.10;;;5.30;99.90;;;;;;4772429;30;20180;-85
2023/02/02 09:00:53;;;;;;;25.83;3.37;;;5.30;99.90;;;;;;4772305;30;20184;-83
2023/02/02 09:03:19;;;;;;;26.17;3.37;;;5.30;99.90;;;;;;4771679;30;20660;-86
2023/02/02 09:05:45;;;;;;;23.40;3.13;;;5.30;99.90;;;;;;4771030;30;20655;-82
2023/02/02 09:08:11;;;;;;;17.43;3.00;;;5.30;99.90;;;;;;4772355;30;20185;-83
2023/02/02 09:10:37;;;;;;;25.27;3.73;;;5.40;99.90;;;;;;4770883;30;20188;-85
2023/02/02 09:13:04;;;;;;;21.40;2.87;;;5.40;99.90;;;;;;4770735;30;20521;-85
2023/02/02 09:15:30;;;;;;;19.57;3.30;;;5.40;99.90;;;;;;4770492;30;20249;-86
2023/02/02 09:17:55;;;;;;;18.53;2.67;;;5.50;99.90;;;;;;4770934;30;20180;-84
2023/02/02 09:20:21;;;;;;;20.57;3.63;;;5.50;99.90;;;;;;4770851;30;20230;-85
2023/02/02 09:22:47;;;;;;;15.87;3.00;;;5.60;99.90;;;;;;4770662;30;20243;-85
2023/02/02 09:25:13;;;;;;;25.33;3.07;;;5.60;99.90;;;;;;4771926;30;20196;-85
2023/02/02 09:27:40;;;;;;;20.40;3.30;;;5.50;99.90;;;;;;4770859;30;20184;-84
2023/02/02 09:30:07;;;;;;;23.57;3.07;;;5.60;99.90;;;;;;4770887;30;20202;-84
2023/02/02 09:32:34;;;;;;;22.83;3.47;;;5.60;99.90;;;;;;4770402;30;20180;-85
2023/02/02 09:35:00;;;;;;;19.40;3.33;;;5.70;99.90;;;;;;4770916;30;20215;-84
2023/02/02 09:37:26;;;;;;;15.70;2.77;;;5.70;99.90;;;;;;4771777;30;20251;-85
2023/02/02 09:39:52;;;;;;;19.17;4.00;;;5.70;99.90;;;;;;4771578;30;20543;-86
2023/02/02 09:42:31;;;;;;;19.43;2.93;;;5.80;99.90;;;;;;4770416;30;20192;-85
2023/02/02 09:45:20;;;;;;;26.37;3.10;;;5.80;99.90;;;;;;4771904;30;20621;-87
2023/02/02 09:47:46;;;;;;;19.20;3.00;;;5.90;99.90;;;;;;4770701;30;20184;-84
2023/02/02 09:50:22;;;;;;;21.63;2.90;;;5.80;99.90;;;;;;4771759;30;20199;-86
2023/02/02 09:52:54;;;;;;;21.60;3.20;;;5.80;99.90;;;;;;4771370;30;20187;-85
2023/02/02 09:55:40;;;;;;;23.43;3.17;;;5.90;99.90;;;;;;4771184;30;20196;-87
2023/02/02 09:58:29;;;;;;;18.73;3.53;;;5.90;99.90;;;;;;4771791;30;20515;-85
2023/02/02 10:01:01;;;;;;;24.30;3.40;;;6.00;99.90;;;;;;4770413;30;20202;-86
2023/02/02 10:03:35;;;;;;;16.03;2.87;;;6.00;99.90;;;;;;4771187;30;20215;-86
2023/02/02 10:06:22;;;;;;;18.83;3.27;;;6.00;99.90;;;;;;4771446;30;20168;-85
2023/02/02 10:09:22;;;;;;;31.00;4.53;;;6.00;99.90;;;;;;4771479;30;20186;-84
2023/02/02 10:11:57;;;;;;;23.57;3.00;;;6.10;99.90;;;;;;4745920;30;20227;-85
2023/02/02 10:14:33;;;;;;;17.80;3.50;;;6.10;99.90;;;;;;4771142;30;20241;-84
2023/02/02 10:17:41;;;;;;;12.73;2.57;;;6.10;99.90;;;;;;4771501;30;20609;-86
2023/02/02 10:20:37;;;;;;;22.97;2.93;;;6.10;99.90;;;;;;4716396;30;20701;-85
2023/02/02 10:23:29;;;;;;;19.93;3.33;;;6.20;99.90;;;;;;4698752;30;20232;-85
2023/02/02 10:26:35;;;;;;;24.80;2.70;;;6.20;99.90;;;;;;4761639;30;20640;-85
2023/02/02 10:29:18;;;;;;;20.77;3.07;;;6.20;99.90;;;;;;4773759;30;20188;-85
2023/02/02 10:32:07;;;;;;;20.47;3.37;;;6.20;99.90;;;;;;4775145;30;20169;-84
2023/02/02 10:34:38;;;;;;;15.63;2.20;;;6.20;99.90;;;;;;4774713;30;20260;-85
2023/02/02 10:37:16;;;;;;;20.70;3.63;;;6.20;99.90;;;;;;4774542;30;20680;-85
2023/02/02 10:40:23;;;;;;;14.97;3.23;;;6.20;99.90;;;;;;4773258;30;20250;-85
2023/02/02 10:43:45;;;;;;;17.57;3.13;;;6.20;99.90;;;;;;4772703;30;20222;-84
2023/02/02 10:46:38;;;;;;;23.07;3.10;;;6.20;99.90;;;;;;4773460;30;20184;-85
2023/02/02 10:49:13;;;;;;;16.53;2.40;;;6.20;99.90;;;;;;4765194;30;20670;-84
2023/02/02 10:51:42;;;;;;;19.30;3.63;;;6.20;99.90;;;;;;4773341;30;20194;-83
2023/02/02 10:54:38;;;;;;;10.77;2.50;;;6.20;99.90;;;;;;4774241;30;20192;-84
2023/02/02 10:57:09;;;;;;;20.43;3.13;;;6.30;99.90;;;;;;4773412;30;20187;-83
2023/02/02 10:59:46;;;;;;;16.60;2.70;;;6.40;99.90;;;;;;4773352;30;20215;-83
2023/02/02 11:02:12;;;;;;;19.30;2.90;;;6.50;99.90;;;;;;4774381;30;20176;-85
2023/02/02 11:07:22;;;;;;;22.80;2.77;;;6.50;99.90;;;;;;4774780;30;20199;-85
2023/02/02 11:09:48;;;;;;;11.67;2.03;;;6.50;99.90;;;;;;4774224;30;20631;-87
2023/02/02 11:12:45;;;;;;;13.67;2.97;;;6.40;99.90;;;;;;4773061;30;20276;-86
2023/02/02 11:15:27;;;;;;;20.53;3.50;;;6.30;99.90;;;;;;4774476;30;20186;-85
2023/02/02 11:17:53;;;;;;;11.03;2.07;;;6.20;99.90;;;;;;4774282;30;20191;-85
2023/02/02 11:20:37;;;;;;;18.83;3.33;;;6.10;99.90;;;;;;4773009;30;20231;-85
2023/02/02 11:23:06;;;;;;;12.80;2.80;;;6.10;99.90;;;;;;4773195;30;20257;-84
2023/02/02 11:25:38;;;;;;;18.90;2.50;;;6.20;99.90;;;;;;4755091;30;20343;-84
2023/02/02 11:28:19;;;;;;;20.77;2.53;;;6.30;99.90;;;;;;4756454;30;20180;-85
2023/02/02 11:30:47;;;;;;;14.93;2.73;;;6.60;99.90;;;;;;4754952;30;20200;-85
2023/02/02 11:33:34;;;;;;;17.67;3.00;;;6.80;99.90;;;;;;4754426;30;20200;-85
2023/02/02 11:36:03;;;;;;;15.20;2.60;;;6.80;99.90;;;;;;4754808;30;20212;-85
2023/02/02 11:38:30;;;;;;;20.77;2.53;;;6.70;99.90;;;;;;4754320;30;20263;-84
2023/02/02 11:41:04;;;;;;;15.37;2.57;;;6.70;99.90;;;;;;4755940;30;20231;-87
2023/02/02 11:43:46;;;;;;;9.63;2.00;;;6.70;99.90;;;;;;4754756;30;20220;-85
2023/02/02 11:46:26;;;;;;;16.43;2.87;;;6.70;99.90;;;;;;4755636;30;20185;-85
2023/02/02 11:49:03;;;;;;;21.30;4.20;;;6.60;99.90;;;;;;4756057;30;20180;-85
2023/02/02 11:51:30;;;;;;;11.67;2.30;;;6.60;99.90;;;;;;4754951;30;20625;-86
2023/02/02 11:54:13;;;;;;;14.73;1.83;;;6.60;99.90;;;;;;4761711;30;20537;-85
2023/02/02 11:56:38;;;;;;;19.07;2.47;;;6.60;99.90;;;;;;4772518;30;20204;-84
2023/02/02 11:59:04;;;;;;;15.60;2.87;;;6.60;99.90;;;;;;4772279;30;20269;-87
2023/02/02 12:01:38;;;;;;;16.47;2.67;;;6.60;99.90;;;;;;4772453;30;20616;-87
2023/02/02 12:04:16;;;;;;;15.40;2.30;;;6.50;99.90;;;;;;4772156;30;20218;-87
2023/02/02 12:06:42;;;;;;;15.50;2.77;;;6.60;99.90;;;;;;4772654;30;20195;-86
2023/02/02 12:09:14;;;;;;;20.43;3.60;;;6.70;99.90;;;;;;4772339;30;20643;-87
2023/02/02 12:12:07;;;;;;;19.63;3.40;;;6.80;99.90;;;;;;4772286;30;20194;-87
2023/02/02 12:15:24;;;;;;;12.47;2.50;;;6.90;99.90;;;;;;4772194;30;20222;-86
2023/02/02 12:17:54;;;;;;;14.10;2.20;;;7.00;99.90;;;;;;4718379;30;20716;-84
2023/02/02 12:20:28;;;;;;;12.20;2.40;;;7.00;99.90;;;;;;4718578;30;20261;-86
2023/02/02 12:23:21;;;;;;;10.50;2.53;;;7.00;99.90;;;;;;4748206;30;20679;-83
2023/02/02 12:26:09;;;;;;;10.70;1.90;;;6.90;99.90;;;;;;4772771;30;20627;-84
2023/02/02 12:29:02;;;;;;;9.90;1.87;;;6.90;99.90;;;;;;4773246;30;20173;-84
2023/02/02 12:31:48;;;;;;;13.77;2.13;;;7.00;99.90;;;;;;4771729;30;20275;-83
2023/02/02 12:34:29;;;;;;;17.53;2.50;;;7.10;99.90;;;;;;4771661;30;20529;-85
2023/02/02 12:37:01;;;;;;;11.07;2.30;;;7.00;99.90;;;;;;4772788;30;20231;-85
2023/02/02 12:39:51;;;;;;;11.87;2.13;;;7.00;99.90;;;;;;4771005;30;20215;-84
2023/02/02 12:42:39;;;;;;;13.23;2.40;;;7.00;99.90;;;;;;4771527;30;20651;-84
2023/02/02 12:45:29;;;;;;;18.13;2.50;;;7.00;99.90;;;;;;4771576;30;20229;-85
2023/02/02 12:48:32;;;;;;;15.10;2.40;;;7.10;99.90;;;;;;4771313;30;20544;-84
2023/02/02 12:51:25;;;;;;;14.57;1.97;;;7.10;99.90;;;;;;4772320;30;20200;-86
2023/02/02 12:54:19;;;;;;;13.13;1.93;;;7.30;99.90;;;;;;4772243;30;20195;-86
2023/02/02 12:57:19;;;;;;;18.50;2.00;;;7.30;99.90;;;;;;4771077;30;20188;-84
2023/02/02 13:00:06;;;;;;;14.50;2.23;;;7.40;99.90;;;;;;4771006;30;20192;-85
2023/02/02 13:02:43;;;;;;;15.93;2.47;;;7.50;99.90;;;;;;4772252;30;20191;-83
2023/02/02 13:05:43;;;;;;;7.93;2.00;;;7.60;99.90;;;;;;4772468;30;20180;-83
2023/02/02 13:08:44;;;;;;;11.87;2.23;;;7.60;99.90;;;;;;4771285;30;20573;-84
2023/02/02 13:11:28;;;;;;;11.87;2.10;;;7.60;99.90;;;;;;4770843;30;20187;-84
2023/02/02 13:14:04;;;;;;;9.80;1.83;;;7.60;99.90;;;;;;4771142;30;20180;-84
2023/02/02 13:16:31;;;;;;;9.67;1.83;;;7.70;99.90;;;;;;4771203;30;20525;-88
2023/02/02 13:19:05;;;;;;;11.77;1.80;;;7.70;99.90;;;;;;4770796;30;20187;-83
2023/02/02 13:21:33;;;;;;;14.27;2.43;;;7.70;99.90;;;;;;4770777;30;20544;-84
2023/02/02 13:24:04;;;;;;;14.53;1.90;;;7.80;99.90;;;;;;4770481;30;20232;-86
2023/02/02 13:26:40;;;;;;;12.47;1.50;;;7.80;99.90;;;;;;4771005;30;20573;-84
2023/02/02 13:29:09;;;;;;;10.73;1.67;;;7.70;99.90;;;;;;4770885;30;20184;-85